sensor_id;sensor_type;location;lat;lon;timestamp;P1;durP1;ratioP1;P2;durP2;ratioP2
25627;SDS011;40915;50.826;4.356;2022-08-19T00:00:17;23.08;;;18.73;;
25627;SDS011;40915;50.826;4.356;2022-08-19T00:02:45;24.73;;;19.33;;
25627;SDS011;40915;50.826;4.356;2022-08-19T00:05:13;21.40;;;18.08;;
25627;SDS011;40915;50.826;4.356;2022-08-19T00:07:42;23.92;;;21.35;;
25627;SDS011;40915;50.826;4.356;2022-08-19T00:10:10;22.90;;;20.40;;
25627;SDS011;40915;50.826;4.356;2022-08-19T00:12:39;22.20;;;19.85;;
25627;SDS011;40915;50.826;4.356;2022-08-19T00:15:08;30.67;;;22.88;;
25627;SDS011;40915;50.826;4.356;2022-08-19T00:17:41;25.80;;;23.00;;
25627;SDS011;40915;50.826;4.356;2022-08-19T00:20:08;29.58;;;24.15;;
25627;SDS011;40915;50.826;4.356;2022-08-19T00:22:35;27.83;;;24.27;;
25627;SDS011;40915;50.826;4.356;2022-08-19T00:25:01;31.27;;;25.23;;
25627;SDS011;40915;50.826;4.356;2022-08-19T00:27:28;31.65;;;26.98;;
25627;SDS011;40915;50.826;4.356;2022-08-19T00:29:56;36.53;;;28.13;;
25627;SDS011;40915;50.826;4.356;2022-08-19T00:32:23;42.72;;;28.27;;
25627;SDS011;40915;50.826;4.356;2022-08-19T00:34:50;36.80;;;30.00;;
25627;SDS011;40915;50.826;4.356;2022-08-19T00:37:17;40.63;;;31.80;;
25627;SDS011;40915;50.826;4.356;2022-08-19T00:39:44;42.53;;;32.05;;
25627;SDS011;40915;50.826;4.356;2022-08-19T00:42:10;39.05;;;30.42;;
25627;SDS011;40915;50.826;4.356;2022-08-19T00:44:37;42.85;;;34.95;;
25627;SDS011;40915;50.826;4.356;2022-08-19T00:47:03;47.55;;;34.05;;
25627;SDS011;40915;50.826;4.356;2022-08-19T00:49:33;46.33;;;32.05;;
25627;SDS011;40915;50.826;4.356;2022-08-19T00:52:04;51.33;;;37.45;;
25627;SDS011;40915;50.826;4.356;2022-08-19T00:54:32;53.28;;;36.65;;
25627;SDS011;40915;50.826;4.356;2022-08-19T00:56:59;52.92;;;38.38;;
25627;SDS011;40915;50.826;4.356;2022-08-19T00:59:25;49.35;;;38.00;;
25627;SDS011;40915;50.826;4.356;2022-08-19T01:01:51;47.08;;;37.08;;
25627;SDS011;40915;50.826;4.356;2022-08-19T01:04:18;48.92;;;37.45;;
25627;SDS011;40915;50.826;4.356;2022-08-19T01:06:44;46.33;;;35.17;;
25627;SDS011;40915;50.826;4.356;2022-08-19T01:09:10;43.67;;;34.90;;
25627;SDS011;40915;50.826;4.356;2022-08-19T01:11:37;46.90;;;35.72;;
25627;SDS011;40915;50.826;4.356;2022-08-19T01:14:05;45.28;;;35.08;;
25627;SDS011;40915;50.826;4.356;2022-08-19T01:16:31;45.70;;;34.90;;
25627;SDS011;40915;50.826;4.356;2022-08-19T01:18:58;45.17;;;36.07;;
25627;SDS011;40915;50.826;4.356;2022-08-19T01:21:26;39.83;;;32.17;;
25627;SDS011;40915;50.826;4.356;2022-08-19T01:23:54;39.25;;;29.88;;
25627;SDS011;40915;50.826;4.356;2022-08-19T01:26:22;41.03;;;33.05;;
25627;SDS011;40915;50.826;4.356;2022-08-19T01:28:50;40.53;;;31.35;;
25627;SDS011;40915;50.826;4.356;2022-08-19T01:31:17;37.50;;;30.48;;
25627;SDS011;40915;50.826;4.356;2022-08-19T01:33:44;38.25;;;29.95;;
25627;SDS011;40915;50.826;4.356;2022-08-19T01:36:13;35.63;;;28.65;;
25627;SDS011;40915;50.826;4.356;2022-08-19T01:38:43;38.08;;;29.10;;
25627;SDS011;40915;50.826;4.356;2022-08-19T01:41:11;36.35;;;28.35;;
25627;SDS011;40915;50.826;4.356;2022-08-19T01:43:37;36.97;;;28.52;;
25627;SDS011;40915;50.826;4.356;2022-08-19T01:46:03;31.65;;;25.85;;
25627;SDS011;40915;50.826;4.356;2022-08-19T01:48:33;32.28;;;27.40;;
25627;SDS011;40915;50.826;4.356;2022-08-19T01:51:00;32.88;;;26.08;;
25627;SDS011;40915;50.826;4.356;2022-08-19T01:53:26;32.88;;;27.15;;
25627;SDS011;40915;50.826;4.356;2022-08-19T01:55:52;34.45;;;27.42;;
25627;SDS011;40915;50.826;4.356;2022-08-19T01:58:20;32.05;;;26.40;;
25627;SDS011;40915;50.826;4.356;2022-08-19T02:00:49;31.50;;;26.58;;
25627;SDS011;40915;50.826;4.356;2022-08-19T02:03:16;29.45;;;23.98;;
25627;SDS011;40915;50.826;4.356;2022-08-19T02:05:42;28.95;;;23.48;;
25627;SDS011;40915;50.826;4.356;2022-08-19T02:08:10;31.70;;;22.88;;
25627;SDS011;40915;50.826;4.356;2022-08-19T02:10:42;27.58;;;22.90;;
25627;SDS011;40915;50.826;4.356;2022-08-19T02:13:09;29.05;;;24.52;;
25627;SDS011;40915;50.826;4.356;2022-08-19T02:15:36;30.48;;;24.85;;
25627;SDS011;40915;50.826;4.356;2022-08-19T02:18:02;28.90;;;24.98;;
25627;SDS011;40915;50.826;4.356;2022-08-19T02:20:28;31.35;;;27.02;;
25627;SDS011;40915;50.826;4.356;2022-08-19T02:22:53;32.38;;;26.13;;
25627;SDS011;40915;50.826;4.356;2022-08-19T02:25:19;34.72;;;27.77;;
25627;SDS011;40915;50.826;4.356;2022-08-19T02:27:44;30.42;;;25.55;;
25627;SDS011;40915;50.826;4.356;2022-08-19T02:30:14;33.15;;;25.33;;
25627;SDS011;40915;50.826;4.356;2022-08-19T02:32:41;32.42;;;26.30;;
25627;SDS011;40915;50.826;4.356;2022-08-19T02:35:07;31.52;;;24.17;;
25627;SDS011;40915;50.826;4.356;2022-08-19T02:37:34;30.55;;;24.20;;
25627;SDS011;40915;50.826;4.356;2022-08-19T02:40:27;30.45;;;23.23;;
25627;SDS011;40915;50.826;4.356;2022-08-19T02:42:53;33.47;;;24.63;;
25627;SDS011;40915;50.826;4.356;2022-08-19T02:45:19;29.05;;;23.52;;
25627;SDS011;40915;50.826;4.356;2022-08-19T02:47:45;30.88;;;23.88;;
25627;SDS011;40915;50.826;4.356;2022-08-19T02:50:11;27.85;;;22.45;;
25627;SDS011;40915;50.826;4.356;2022-08-19T02:52:37;29.08;;;23.15;;
25627;SDS011;40915;50.826;4.356;2022-08-19T02:55:03;27.67;;;20.77;;
25627;SDS011;40915;50.826;4.356;2022-08-19T02:57:30;29.25;;;21.40;;
25627;SDS011;40915;50.826;4.356;2022-08-19T02:59:56;28.48;;;21.02;;
25627;SDS011;40915;50.826;4.356;2022-08-19T03:02:22;25.15;;;20.30;;
25627;SDS011;40915;50.826;4.356;2022-08-19T03:04:48;29.33;;;20.13;;
25627;SDS011;40915;50.826;4.356;2022-08-19T03:07:15;28.10;;;21.08;;
25627;SDS011;40915;50.826;4.356;2022-08-19T03:09:41;29.42;;;20.95;;
25627;SDS011;40915;50.826;4.356;2022-08-19T03:12:07;25.60;;;20.70;;
25627;SDS011;40915;50.826;4.356;2022-08-19T03:14:33;31.77;;;21.98;;
25627;SDS011;40915;50.826;4.356;2022-08-19T03:17:00;26.48;;;21.58;;
25627;SDS011;40915;50.826;4.356;2022-08-19T03:19:26;27.73;;;21.52;;
25627;SDS011;40915;50.826;4.356;2022-08-19T03:21:52;35.25;;;23.08;;
25627;SDS011;40915;50.826;4.356;2022-08-19T03:24:20;31.65;;;22.08;;
25627;SDS011;40915;50.826;4.356;2022-08-19T03:26:50;29.15;;;20.40;;
25627;SDS011;40915;50.826;4.356;2022-08-19T03:29:16;30.48;;;21.15;;
25627;SDS011;40915;50.826;4.356;2022-08-19T03:31:43;26.73;;;20.10;;
25627;SDS011;40915;50.826;4.356;2022-08-19T03:34:10;25.83;;;18.50;;
25627;SDS011;40915;50.826;4.356;2022-08-19T03:36:38;26.20;;;19.63;;
25627;SDS011;40915;50.826;4.356;2022-08-19T03:39:03;28.42;;;19.55;;
25627;SDS011;40915;50.826;4.356;2022-08-19T03:41:31;27.00;;;19.80;;
25627;SDS011;40915;50.826;4.356;2022-08-19T03:44:02;25.25;;;18.75;;
25627;SDS011;40915;50.826;4.356;2022-08-19T03:46:30;28.10;;;20.58;;
25627;SDS011;40915;50.826;4.356;2022-08-19T03:48:58;32.78;;;22.17;;
25627;SDS011;40915;50.826;4.356;2022-08-19T03:51:29;29.20;;;21.63;;
25627;SDS011;40915;50.826;4.356;2022-08-19T03:53:58;29.17;;;22.35;;
25627;SDS011;40915;50.826;4.356;2022-08-19T03:56:26;30.23;;;21.88;;
25627;SDS011;40915;50.826;4.356;2022-08-19T03:58:52;38.13;;;23.75;;
25627;SDS011;40915;50.826;4.356;2022-08-19T04:01:20;32.03;;;22.58;;
25627;SDS011;40915;50.826;4.356;2022-08-19T04:03:47;29.90;;;22.48;;
25627;SDS011;40915;50.826;4.356;2022-08-19T04:08:40;31.95;;;21.02;;
25627;SDS011;40915;50.826;4.356;2022-08-19T04:11:08;28.20;;;21.02;;
25627;SDS011;40915;50.826;4.356;2022-08-19T04:13:35;31.45;;;21.73;;
25627;SDS011;40915;50.826;4.356;2022-08-19T04:16:01;33.00;;;21.52;;
25627;SDS011;40915;50.826;4.356;2022-08-19T04:18:28;34.92;;;21.30;;
25627;SDS011;40915;50.826;4.356;2022-08-19T04:20:55;30.77;;;20.35;;
25627;SDS011;40915;50.826;4.356;2022-08-19T04:23:21;29.10;;;20.88;;
25627;SDS011;40915;50.826;4.356;2022-08-19T04:25:47;29.65;;;20.30;;
25627;SDS011;40915;50.826;4.356;2022-08-19T04:28:13;27.65;;;20.17;;
25627;SDS011;40915;50.826;4.356;2022-08-19T04:30:40;31.75;;;21.52;;
25627;SDS011;40915;50.826;4.356;2022-08-19T04:33:08;25.13;;;18.40;;
25627;SDS011;40915;50.826;4.356;2022-08-19T04:35:38;27.63;;;18.77;;
25627;SDS011;40915;50.826;4.356;2022-08-19T04:38:05;30.17;;;19.52;;
25627;SDS011;40915;50.826;4.356;2022-08-19T04:40:31;26.48;;;18.90;;
25627;SDS011;40915;50.826;4.356;2022-08-19T04:43:15;27.95;;;18.15;;
25627;SDS011;40915;50.826;4.356;2022-08-19T04:45:46;29.15;;;18.67;;
25627;SDS011;40915;50.826;4.356;2022-08-19T04:48:12;27.45;;;18.77;;
25627;SDS011;40915;50.826;4.356;2022-08-19T04:50:42;26.65;;;18.45;;
25627;SDS011;40915;50.826;4.356;2022-08-19T04:53:08;26.00;;;16.98;;
25627;SDS011;40915;50.826;4.356;2022-08-19T04:55:34;26.92;;;18.52;;
25627;SDS011;40915;50.826;4.356;2022-08-19T04:58:03;26.88;;;17.27;;
25627;SDS011;40915;50.826;4.356;2022-08-19T05:00:28;28.63;;;16.60;;
25627;SDS011;40915;50.826;4.356;2022-08-19T05:02:54;22.08;;;15.07;;
25627;SDS011;40915;50.826;4.356;2022-08-19T05:05:19;22.25;;;14.77;;
25627;SDS011;40915;50.826;4.356;2022-08-19T05:07:45;23.40;;;14.65;;
25627;SDS011;40915;50.826;4.356;2022-08-19T05:10:11;22.60;;;14.80;;
25627;SDS011;40915;50.826;4.356;2022-08-19T05:12:37;27.52;;;15.02;;
25627;SDS011;40915;50.826;4.356;2022-08-19T05:15:04;24.13;;;14.40;;
25627;SDS011;40915;50.826;4.356;2022-08-19T05:17:30;27.55;;;15.07;;
25627;SDS011;40915;50.826;4.356;2022-08-19T05:19:56;24.15;;;16.23;;
25627;SDS011;40915;50.826;4.356;2022-08-19T05:22:42;31.17;;;16.27;;
25627;SDS011;40915;50.826;4.356;2022-08-19T05:25:11;27.55;;;17.30;;
25627;SDS011;40915;50.826;4.356;2022-08-19T05:27:39;31.83;;;18.58;;
25627;SDS011;40915;50.826;4.356;2022-08-19T05:30:06;29.13;;;19.58;;
25627;SDS011;40915;50.826;4.356;2022-08-19T05:32:32;31.90;;;20.42;;
25627;SDS011;40915;50.826;4.356;2022-08-19T05:34:57;31.83;;;20.42;;
25627;SDS011;40915;50.826;4.356;2022-08-19T05:37:23;33.33;;;21.13;;
25627;SDS011;40915;50.826;4.356;2022-08-19T05:39:51;27.13;;;19.40;;
25627;SDS011;40915;50.826;4.356;2022-08-19T05:42:18;38.08;;;20.85;;
25627;SDS011;40915;50.826;4.356;2022-08-19T05:44:45;32.03;;;18.55;;
25627;SDS011;40915;50.826;4.356;2022-08-19T05:47:12;31.40;;;18.05;;
25627;SDS011;40915;50.826;4.356;2022-08-19T05:49:40;41.08;;;17.98;;
25627;SDS011;40915;50.826;4.356;2022-08-19T05:52:07;41.80;;;18.63;;
25627;SDS011;40915;50.826;4.356;2022-08-19T05:54:36;32.72;;;16.65;;
25627;SDS011;40915;50.826;4.356;2022-08-19T05:57:05;39.75;;;17.05;;
25627;SDS011;40915;50.826;4.356;2022-08-19T05:59:31;27.10;;;15.52;;
25627;SDS011;40915;50.826;4.356;2022-08-19T06:01:56;19.00;;;12.88;;
25627;SDS011;40915;50.826;4.356;2022-08-19T06:04:22;19.73;;;12.82;;
25627;SDS011;40915;50.826;4.356;2022-08-19T06:06:49;33.67;;;13.30;;
25627;SDS011;40915;50.826;4.356;2022-08-19T06:09:16;24.88;;;13.15;;
25627;SDS011;40915;50.826;4.356;2022-08-19T06:11:44;27.20;;;13.23;;
25627;SDS011;40915;50.826;4.356;2022-08-19T06:14:13;18.35;;;10.45;;
25627;SDS011;40915;50.826;4.356;2022-08-19T06:16:43;15.65;;;10.48;;
25627;SDS011;40915;50.826;4.356;2022-08-19T06:19:10;18.92;;;10.13;;
25627;SDS011;40915;50.826;4.356;2022-08-19T06:21:45;26.63;;;10.80;;
25627;SDS011;40915;50.826;4.356;2022-08-19T06:24:16;24.55;;;10.23;;
25627;SDS011;40915;50.826;4.356;2022-08-19T06:26:46;21.45;;;10.13;;
25627;SDS011;40915;50.826;4.356;2022-08-19T06:29:26;19.92;;;8.57;;
25627;SDS011;40915;50.826;4.356;2022-08-19T06:31:55;35.72;;;11.77;;
25627;SDS011;40915;50.826;4.356;2022-08-19T06:34:22;20.73;;;8.88;;
25627;SDS011;40915;50.826;4.356;2022-08-19T06:36:49;29.55;;;10.38;;
25627;SDS011;40915;50.826;4.356;2022-08-19T06:39:20;22.67;;;9.27;;
25627;SDS011;40915;50.826;4.356;2022-08-19T06:41:49;23.63;;;9.38;;
25627;SDS011;40915;50.826;4.356;2022-08-19T06:44:19;18.13;;;8.85;;
25627;SDS011;40915;50.826;4.356;2022-08-19T06:46:47;13.75;;;7.78;;
25627;SDS011;40915;50.826;4.356;2022-08-19T06:49:14;28.13;;;10.23;;
25627;SDS011;40915;50.826;4.356;2022-08-19T06:51:43;25.30;;;9.30;;
25627;SDS011;40915;50.826;4.356;2022-08-19T06:54:12;39.30;;;11.70;;
25627;SDS011;40915;50.826;4.356;2022-08-19T06:56:39;19.10;;;8.00;;
25627;SDS011;40915;50.826;4.356;2022-08-19T06:59:06;15.30;;;8.30;;
25627;SDS011;40915;50.826;4.356;2022-08-19T07:01:35;19.70;;;8.30;;
25627;SDS011;40915;50.826;4.356;2022-08-19T07:04:02;14.88;;;9.43;;
25627;SDS011;40915;50.826;4.356;2022-08-19T07:06:29;16.55;;;8.45;;
25627;SDS011;40915;50.826;4.356;2022-08-19T07:08:56;17.75;;;8.93;;
25627;SDS011;40915;50.826;4.356;2022-08-19T07:11:23;25.73;;;9.85;;
25627;SDS011;40915;50.826;4.356;2022-08-19T07:13:49;22.33;;;9.60;;
25627;SDS011;40915;50.826;4.356;2022-08-19T07:16:16;20.90;;;8.82;;
25627;SDS011;40915;50.826;4.356;2022-08-19T07:18:47;43.50;;;13.10;;
25627;SDS011;40915;50.826;4.356;2022-08-19T07:21:15;28.00;;;11.07;;
25627;SDS011;40915;50.826;4.356;2022-08-19T07:23:43;19.08;;;9.05;;
25627;SDS011;40915;50.826;4.356;2022-08-19T07:26:11;24.25;;;9.82;;
25627;SDS011;40915;50.826;4.356;2022-08-19T07:28:40;17.67;;;9.27;;
25627;SDS011;40915;50.826;4.356;2022-08-19T07:31:09;13.93;;;8.05;;
25627;SDS011;40915;50.826;4.356;2022-08-19T07:33:37;12.07;;;6.95;;
25627;SDS011;40915;50.826;4.356;2022-08-19T07:36:05;11.35;;;6.57;;
25627;SDS011;40915;50.826;4.356;2022-08-19T07:38:35;15.63;;;7.40;;
25627;SDS011;40915;50.826;4.356;2022-08-19T07:41:01;14.00;;;6.90;;
25627;SDS011;40915;50.826;4.356;2022-08-19T07:43:27;13.30;;;6.97;;
25627;SDS011;40915;50.826;4.356;2022-08-19T07:45:53;23.30;;;9.50;;
25627;SDS011;40915;50.826;4.356;2022-08-19T07:48:22;13.40;;;6.20;;
25627;SDS011;40915;50.826;4.356;2022-08-19T07:50:50;11.55;;;6.85;;
25627;SDS011;40915;50.826;4.356;2022-08-19T07:53:20;9.30;;;6.47;;
25627;SDS011;40915;50.826;4.356;2022-08-19T07:55:46;11.35;;;6.80;;
25627;SDS011;40915;50.826;4.356;2022-08-19T07:58:13;11.77;;;6.88;;
25627;SDS011;40915;50.826;4.356;2022-08-19T08:00:42;14.40;;;7.47;;
25627;SDS011;40915;50.826;4.356;2022-08-19T08:03:09;13.27;;;6.95;;
25627;SDS011;40915;50.826;4.356;2022-08-19T08:05:35;10.02;;;6.80;;
25627;SDS011;40915;50.826;4.356;2022-08-19T08:08:19;10.38;;;6.22;;
25627;SDS011;40915;50.826;4.356;2022-08-19T08:10:47;11.32;;;6.40;;
25627;SDS011;40915;50.826;4.356;2022-08-19T08:13:13;9.88;;;5.75;;
25627;SDS011;40915;50.826;4.356;2022-08-19T08:15:39;11.77;;;6.25;;
25627;SDS011;40915;50.826;4.356;2022-08-19T08:18:05;9.65;;;5.55;;
25627;SDS011;40915;50.826;4.356;2022-08-19T08:20:31;11.07;;;5.85;;
25627;SDS011;40915;50.826;4.356;2022-08-19T08:22:57;8.27;;;5.45;;
25627;SDS011;40915;50.826;4.356;2022-08-19T08:26:01;12.10;;;5.65;;
25627;SDS011;40915;50.826;4.356;2022-08-19T08:28:27;13.27;;;6.68;;
25627;SDS011;40915;50.826;4.356;2022-08-19T08:30:54;12.48;;;6.28;;
25627;SDS011;40915;50.826;4.356;2022-08-19T08:33:22;10.30;;;5.63;;
25627;SDS011;40915;50.826;4.356;2022-08-19T08:35:49;10.30;;;5.97;;
25627;SDS011;40915;50.826;4.356;2022-08-19T08:38:15;15.18;;;5.75;;
25627;SDS011;40915;50.826;4.356;2022-08-19T08:41:01;10.90;;;5.65;;
25627;SDS011;40915;50.826;4.356;2022-08-19T08:43:37;10.82;;;5.75;;
25627;SDS011;40915;50.826;4.356;2022-08-19T08:46:19;6.50;;;4.43;;
25627;SDS011;40915;50.826;4.356;2022-08-19T08:48:53;9.63;;;5.20;;
25627;SDS011;40915;50.826;4.356;2022-08-19T08:51:26;7.80;;;4.88;;
25627;SDS011;40915;50.826;4.356;2022-08-19T08:54:10;8.27;;;5.07;;
25627;SDS011;40915;50.826;4.356;2022-08-19T08:56:39;7.05;;;4.65;;
25627;SDS011;40915;50.826;4.356;2022-08-19T08:59:10;9.02;;;5.47;;
25627;SDS011;40915;50.826;4.356;2022-08-19T09:01:37;8.45;;;5.07;;
25627;SDS011;40915;50.826;4.356;2022-08-19T09:04:06;6.72;;;4.68;;
25627;SDS011;40915;50.826;4.356;2022-08-19T09:09:10;8.65;;;5.60;;
25627;SDS011;40915;50.826;4.356;2022-08-19T09:17:17;13.30;;;5.65;;
25627;SDS011;40915;50.826;4.356;2022-08-19T09:19:53;11.13;;;5.93;;
25627;SDS011;40915;50.826;4.356;2022-08-19T09:22:22;8.98;;;4.88;;
25627;SDS011;40915;50.826;4.356;2022-08-19T09:24:49;9.27;;;5.15;;
25627;SDS011;40915;50.826;4.356;2022-08-19T09:27:17;8.27;;;4.90;;
25627;SDS011;40915;50.826;4.356;2022-08-19T09:29:44;12.27;;;5.07;;
25627;SDS011;40915;50.826;4.356;2022-08-19T09:32:09;7.88;;;4.85;;
25627;SDS011;40915;50.826;4.356;2022-08-19T09:34:35;10.60;;;5.50;;
25627;SDS011;40915;50.826;4.356;2022-08-19T09:37:01;13.02;;;5.88;;
25627;SDS011;40915;50.826;4.356;2022-08-19T09:39:28;10.07;;;5.50;;
25627;SDS011;40915;50.826;4.356;2022-08-19T09:41:55;7.70;;;5.53;;
25627;SDS011;40915;50.826;4.356;2022-08-19T09:44:21;11.30;;;5.63;;
25627;SDS011;40915;50.826;4.356;2022-08-19T09:46:47;8.02;;;4.78;;
25627;SDS011;40915;50.826;4.356;2022-08-19T09:49:13;9.98;;;4.97;;
25627;SDS011;40915;50.826;4.356;2022-08-19T09:51:39;6.68;;;4.70;;
25627;SDS011;40915;50.826;4.356;2022-08-19T09:54:04;7.80;;;4.80;;
25627;SDS011;40915;50.826;4.356;2022-08-19T09:56:31;6.95;;;4.50;;
25627;SDS011;40915;50.826;4.356;2022-08-19T09:58:58;6.78;;;4.63;;
25627;SDS011;40915;50.826;4.356;2022-08-19T10:01:25;6.35;;;4.22;;
25627;SDS011;40915;50.826;4.356;2022-08-19T10:03:54;8.15;;;4.18;;
25627;SDS011;40915;50.826;4.356;2022-08-19T10:06:22;6.85;;;3.90;;
25627;SDS011;40915;50.826;4.356;2022-08-19T10:08:50;8.15;;;4.18;;
25627;SDS011;40915;50.826;4.356;2022-08-19T10:11:17;5.75;;;3.60;;
25627;SDS011;40915;50.826;4.356;2022-08-19T10:13:44;5.38;;;4.55;;
25627;SDS011;40915;50.826;4.356;2022-08-19T10:16:14;11.63;;;4.63;;
25627;SDS011;40915;50.826;4.356;2022-08-19T10:18:42;7.32;;;4.45;;
25627;SDS011;40915;50.826;4.356;2022-08-19T10:21:11;8.90;;;4.50;;
25627;SDS011;40915;50.826;4.356;2022-08-19T10:23:39;8.20;;;4.30;;
25627;SDS011;40915;50.826;4.356;2022-08-19T10:26:10;6.75;;;5.30;;
25627;SDS011;40915;50.826;4.356;2022-08-19T10:28:41;9.00;;;6.10;;
25627;SDS011;40915;50.826;4.356;2022-08-19T10:31:08;11.82;;;6.72;;
25627;SDS011;40915;50.826;4.356;2022-08-19T10:33:36;7.95;;;5.93;;
25627;SDS011;40915;50.826;4.356;2022-08-19T10:36:13;12.25;;;6.40;;
25627;SDS011;40915;50.826;4.356;2022-08-19T10:38:48;8.00;;;6.60;;
25627;SDS011;40915;50.826;4.356;2022-08-19T10:41:17;9.52;;;7.05;;
25627;SDS011;40915;50.826;4.356;2022-08-19T10:43:45;13.10;;;7.22;;
25627;SDS011;40915;50.826;4.356;2022-08-19T10:46:12;11.32;;;7.10;;
25627;SDS011;40915;50.826;4.356;2022-08-19T10:48:39;12.20;;;6.80;;
25627;SDS011;40915;50.826;4.356;2022-08-19T10:51:06;10.35;;;6.18;;
25627;SDS011;40915;50.826;4.356;2022-08-19T10:53:51;7.97;;;7.15;;
25627;SDS011;40915;50.826;4.356;2022-08-19T10:56:17;13.85;;;7.53;;
25627;SDS011;40915;50.826;4.356;2022-08-19T10:59:02;9.55;;;7.57;;
25627;SDS011;40915;50.826;4.356;2022-08-19T11:01:29;9.57;;;7.45;;
25627;SDS011;40915;50.826;4.356;2022-08-19T11:03:56;13.30;;;6.95;;
25627;SDS011;40915;50.826;4.356;2022-08-19T11:06:22;7.82;;;6.45;;
25627;SDS011;40915;50.826;4.356;2022-08-19T11:08:50;9.15;;;6.82;;
25627;SDS011;40915;50.826;4.356;2022-08-19T11:11:16;12.52;;;8.20;;
25627;SDS011;40915;50.826;4.356;2022-08-19T11:13:42;8.10;;;6.63;;
25627;SDS011;40915;50.826;4.356;2022-08-19T11:16:11;12.73;;;6.75;;
25627;SDS011;40915;50.826;4.356;2022-08-19T11:18:41;9.65;;;7.28;;
25627;SDS011;40915;50.826;4.356;2022-08-19T11:21:10;12.25;;;9.38;;
25627;SDS011;40915;50.826;4.356;2022-08-19T11:23:59;12.02;;;8.48;;
25627;SDS011;40915;50.826;4.356;2022-08-19T11:26:28;10.10;;;8.40;;
25627;SDS011;40915;50.826;4.356;2022-08-19T11:28:56;11.15;;;8.63;;
25627;SDS011;40915;50.826;4.356;2022-08-19T11:31:24;9.73;;;8.43;;
25627;SDS011;40915;50.826;4.356;2022-08-19T11:33:51;13.07;;;8.10;;
25627;SDS011;40915;50.826;4.356;2022-08-19T11:36:20;12.57;;;9.85;;
25627;SDS011;40915;50.826;4.356;2022-08-19T11:38:49;14.90;;;8.80;;
25627;SDS011;40915;50.826;4.356;2022-08-19T11:41:16;14.57;;;8.98;;
25627;SDS011;40915;50.826;4.356;2022-08-19T11:43:42;10.77;;;8.40;;
25627;SDS011;40915;50.826;4.356;2022-08-19T11:46:14;11.98;;;7.40;;
25627;SDS011;40915;50.826;4.356;2022-08-19T11:48:41;8.43;;;7.30;;
25627;SDS011;40915;50.826;4.356;2022-08-19T11:51:10;9.43;;;7.13;;
25627;SDS011;40915;50.826;4.356;2022-08-19T11:53:38;9.43;;;6.75;;
25627;SDS011;40915;50.826;4.356;2022-08-19T11:56:05;13.55;;;6.80;;
25627;SDS011;40915;50.826;4.356;2022-08-19T11:58:32;9.82;;;6.22;;
25627;SDS011;40915;50.826;4.356;2022-08-19T12:00:59;7.63;;;5.97;;
25627;SDS011;40915;50.826;4.356;2022-08-19T12:03:25;10.55;;;6.22;;
25627;SDS011;40915;50.826;4.356;2022-08-19T12:05:52;7.13;;;5.63;;
25627;SDS011;40915;50.826;4.356;2022-08-19T12:08:18;5.00;;;4.18;;
25627;SDS011;40915;50.826;4.356;2022-08-19T12:10:43;7.43;;;4.70;;
25627;SDS011;40915;50.826;4.356;2022-08-19T12:13:10;9.05;;;4.75;;
25627;SDS011;40915;50.826;4.356;2022-08-19T12:15:43;8.50;;;4.88;;
25627;SDS011;40915;50.826;4.356;2022-08-19T12:18:10;5.10;;;4.47;;
25627;SDS011;40915;50.826;4.356;2022-08-19T12:20:37;6.68;;;4.35;;
25627;SDS011;40915;50.826;4.356;2022-08-19T12:23:04;6.25;;;4.20;;
25627;SDS011;40915;50.826;4.356;2022-08-19T12:25:32;6.15;;;3.97;;
25627;SDS011;40915;50.826;4.356;2022-08-19T12:27:58;5.00;;;3.75;;
25627;SDS011;40915;50.826;4.356;2022-08-19T12:30:24;5.60;;;3.60;;
25627;SDS011;40915;50.826;4.356;2022-08-19T12:32:50;6.63;;;3.80;;
25627;SDS011;40915;50.826;4.356;2022-08-19T12:35:16;4.05;;;3.05;;
25627;SDS011;40915;50.826;4.356;2022-08-19T12:37:44;3.78;;;2.47;;
25627;SDS011;40915;50.826;4.356;2022-08-19T12:40:12;8.07;;;3.92;;
25627;SDS011;40915;50.826;4.356;2022-08-19T12:42:39;4.57;;;3.03;;
25627;SDS011;40915;50.826;4.356;2022-08-19T12:45:07;6.30;;;3.20;;
25627;SDS011;40915;50.826;4.356;2022-08-19T12:47:36;6.75;;;2.60;;
25627;SDS011;40915;50.826;4.356;2022-08-19T12:50:02;4.32;;;2.63;;
25627;SDS011;40915;50.826;4.356;2022-08-19T12:52:33;4.97;;;2.70;;
25627;SDS011;40915;50.826;4.356;2022-08-19T12:55:02;5.10;;;2.47;;
25627;SDS011;40915;50.826;4.356;2022-08-19T12:57:29;2.90;;;2.40;;
25627;SDS011;40915;50.826;4.356;2022-08-19T12:59:58;5.68;;;2.80;;
25627;SDS011;40915;50.826;4.356;2022-08-19T13:02:29;5.95;;;2.78;;
25627;SDS011;40915;50.826;4.356;2022-08-19T13:04:56;5.72;;;2.60;;
25627;SDS011;40915;50.826;4.356;2022-08-19T13:07:23;4.13;;;2.80;;
25627;SDS011;40915;50.826;4.356;2022-08-19T13:09:50;11.13;;;3.05;;
25627;SDS011;40915;50.826;4.356;2022-08-19T13:12:17;3.45;;;2.20;;
25627;SDS011;40915;50.826;4.356;2022-08-19T13:14:45;4.55;;;2.17;;
25627;SDS011;40915;50.826;4.356;2022-08-19T13:17:16;3.28;;;2.10;;
25627;SDS011;40915;50.826;4.356;2022-08-19T13:19:41;1.98;;;1.70;;
25627;SDS011;40915;50.826;4.356;2022-08-19T13:22:07;3.95;;;1.90;;
25627;SDS011;40915;50.826;4.356;2022-08-19T13:24:32;8.27;;;2.20;;
25627;SDS011;40915;50.826;4.356;2022-08-19T13:26:59;3.30;;;1.90;;
25627;SDS011;40915;50.826;4.356;2022-08-19T13:29:25;3.88;;;2.13;;
25627;SDS011;40915;50.826;4.356;2022-08-19T13:32:09;3.60;;;2.08;;
25627;SDS011;40915;50.826;4.356;2022-08-19T13:34:53;6.40;;;2.03;;
25627;SDS011;40915;50.826;4.356;2022-08-19T13:37:19;3.85;;;2.10;;
25627;SDS011;40915;50.826;4.356;2022-08-19T13:40:06;11.13;;;2.55;;
25627;SDS011;40915;50.826;4.356;2022-08-19T13:42:38;4.32;;;2.15;;
25627;SDS011;40915;50.826;4.356;2022-08-19T13:45:04;3.92;;;2.25;;
25627;SDS011;40915;50.826;4.356;2022-08-19T13:47:31;5.55;;;2.20;;
25627;SDS011;40915;50.826;4.356;2022-08-19T13:49:59;5.68;;;1.90;;
25627;SDS011;40915;50.826;4.356;2022-08-19T13:52:25;4.15;;;2.15;;
25627;SDS011;40915;50.826;4.356;2022-08-19T13:54:51;3.58;;;1.80;;
25627;SDS011;40915;50.826;4.356;2022-08-19T13:57:18;2.58;;;1.65;;
25627;SDS011;40915;50.826;4.356;2022-08-19T13:59:44;6.43;;;1.52;;
25627;SDS011;40915;50.826;4.356;2022-08-19T14:02:10;2.85;;;1.70;;
25627;SDS011;40915;50.826;4.356;2022-08-19T14:04:35;7.40;;;1.70;;
25627;SDS011;40915;50.826;4.356;2022-08-19T14:07:02;2.88;;;1.80;;
25627;SDS011;40915;50.826;4.356;2022-08-19T14:09:28;7.18;;;1.80;;
25627;SDS011;40915;50.826;4.356;2022-08-19T14:11:54;3.67;;;1.83;;
25627;SDS011;40915;50.826;4.356;2022-08-19T14:14:20;5.00;;;1.90;;
25627;SDS011;40915;50.826;4.356;2022-08-19T14:16:46;5.40;;;1.80;;
25627;SDS011;40915;50.826;4.356;2022-08-19T14:19:13;4.60;;;1.90;;
25627;SDS011;40915;50.826;4.356;2022-08-19T14:21:38;7.57;;;2.75;;
25627;SDS011;40915;50.826;4.356;2022-08-19T14:24:05;7.28;;;2.70;;
25627;SDS011;40915;50.826;4.356;2022-08-19T14:26:32;2.90;;;1.80;;
25627;SDS011;40915;50.826;4.356;2022-08-19T14:28:57;3.53;;;1.83;;
25627;SDS011;40915;50.826;4.356;2022-08-19T14:31:23;3.78;;;1.90;;
25627;SDS011;40915;50.826;4.356;2022-08-19T14:33:49;3.75;;;1.75;;
25627;SDS011;40915;50.826;4.356;2022-08-19T14:36:16;3.63;;;1.65;;
25627;SDS011;40915;50.826;4.356;2022-08-19T14:38:46;1.30;;;1.20;;
25627;SDS011;40915;50.826;4.356;2022-08-19T14:43:45;3.05;;;1.40;;
25627;SDS011;40915;50.826;4.356;2022-08-19T14:46:13;2.63;;;1.30;;
25627;SDS011;40915;50.826;4.356;2022-08-19T14:48:40;3.78;;;1.45;;
25627;SDS011;40915;50.826;4.356;2022-08-19T14:51:06;6.35;;;1.58;;